UAE367 RCTP-OMDB
Flight info
| Callsign | UAE367 |
|---|---|
| Flight time | N/A |
| Altitude | 32000 |
| Route | CHALI1B CHALI T3 MKG A1 KADLO T1 KAPLI DCT MADRU DCT SULUX/N0501F340 DCT IGLEG DCT IKELA/K0928F340 A1 PAPRA/N0502F340 A1 UBL Y20 BKK L301 URKOK/N0495F360 L301 BUSBO L505 EXOLU M638 KARKU L301 RASKI/N0482F380 L301 RAGMA N571 VUSET A454 PASOV B540 KUPMA/N0474F240 B540 MIVEK P574 IMPED |
| Aircraft | B77W/H-SDE1E2E3FGHIJ2J3J4J5M1RWXY/LB1D1 |
Departure
| Time | N/A |
|---|---|
| Airport | Taiwan Taoyuan International Airport (RCTP) |
Arrival
| Time | 2026-04-21 07:05 |
|---|---|
| Airport | Dubai International Airport (OMDB) |
| Time | Latitude | Longitude | Altitude | Speed | Heading |
|---|---|---|---|---|---|
| 2026-04-21 06:21 | 23.60708 | 60.03264 | 35853 ft | 450 kts | 293° |
| 2026-04-21 06:21 | 23.61859 | 60.00080 | 35842 ft | 453 kts | 294° |
| 2026-04-21 06:22 | 23.64148 | 59.93743 | 35846 ft | 451 kts | 294° |
| 2026-04-21 06:22 | 23.66439 | 59.87389 | 35853 ft | 449 kts | 293° |
| 2026-04-21 06:23 | 23.68719 | 59.81059 | 35859 ft | 449 kts | 293° |
| 2026-04-21 06:23 | 23.70997 | 59.74723 | 35863 ft | 452 kts | 293° |
| 2026-04-21 06:24 | 23.73285 | 59.68350 | 35854 ft | 450 kts | 293° |
| 2026-04-21 06:24 | 23.75573 | 59.61969 | 35858 ft | 450 kts | 293° |
| 2026-04-21 06:25 | 23.77852 | 59.55602 | 35856 ft | 450 kts | 293° |
| 2026-04-21 06:25 | 23.80111 | 59.49280 | 35860 ft | 449 kts | 293° |
| 2026-04-21 06:26 | 23.82377 | 59.42933 | 35865 ft | 451 kts | 293° |
| 2026-04-21 06:26 | 23.84659 | 59.36529 | 35867 ft | 452 kts | 294° |
| 2026-04-21 06:27 | 23.86937 | 59.30127 | 35866 ft | 452 kts | 293° |
| 2026-04-21 06:27 | 23.89206 | 59.23740 | 35867 ft | 453 kts | 293° |
| 2026-04-21 06:28 | 23.91476 | 59.17341 | 35870 ft | 453 kts | 293° |
| 2026-04-21 06:28 | 23.93706 | 59.10917 | 35854 ft | 455 kts | 291° |
| 2026-04-21 06:29 | 23.95788 | 59.04384 | 35856 ft | 451 kts | 291° |
| 2026-04-21 06:29 | 23.97864 | 58.97878 | 35845 ft | 454 kts | 291° |
| 2026-04-21 06:30 | 23.99925 | 58.91423 | 35846 ft | 453 kts | 291° |
| 2026-04-21 06:30 | 24.02002 | 58.84922 | 35843 ft | 452 kts | 291° |
| 2026-04-21 06:31 | 24.04075 | 58.78425 | 35843 ft | 453 kts | 291° |
| 2026-04-21 06:31 | 24.06140 | 58.71945 | 35840 ft | 452 kts | 291° |
| 2026-04-21 06:32 | 24.08206 | 58.65451 | 35838 ft | 450 kts | 291° |
| 2026-04-21 06:32 | 24.10278 | 58.58930 | 35845 ft | 452 kts | 291° |
| 2026-04-21 06:33 | 24.12331 | 58.52460 | 35842 ft | 449 kts | 291° |
| 2026-04-21 06:33 | 24.14378 | 58.45995 | 35846 ft | 451 kts | 291° |
| 2026-04-21 06:34 | 24.16439 | 58.39477 | 35843 ft | 449 kts | 291° |
| 2026-04-21 06:34 | 24.18484 | 58.32999 | 35850 ft | 449 kts | 290° |
| 2026-04-21 06:35 | 24.20534 | 58.26494 | 35852 ft | 448 kts | 290° |
| 2026-04-21 06:35 | 24.22559 | 58.20057 | 35850 ft | 450 kts | 290° |
| 2026-04-21 06:36 | 24.24586 | 58.13602 | 35851 ft | 448 kts | 290° |
| 2026-04-21 06:36 | 24.26613 | 58.07139 | 35853 ft | 448 kts | 290° |
| 2026-04-21 06:37 | 24.28637 | 58.00674 | 35857 ft | 447 kts | 290° |
| 2026-04-21 06:37 | 24.30653 | 57.94223 | 35852 ft | 448 kts | 290° |
| 2026-04-21 06:38 | 24.32677 | 57.87736 | 35853 ft | 450 kts | 290° |
| 2026-04-21 06:38 | 24.34682 | 57.81298 | 35856 ft | 445 kts | 290° |
| 2026-04-21 06:39 | 24.36424 | 57.75698 | 35852 ft | 446 kts | 290° |
| 2026-04-21 06:39 | 24.38423 | 57.69262 | 35850 ft | 446 kts | 290° |
| 2026-04-21 06:40 | 24.40410 | 57.62851 | 35854 ft | 446 kts | 290° |
| 2026-04-21 06:40 | 24.42400 | 57.56420 | 35840 ft | 445 kts | 290° |
| 2026-04-21 06:41 | 24.44367 | 57.50053 | 35842 ft | 440 kts | 290° |
| 2026-04-21 06:41 | 24.46330 | 57.43689 | 35392 ft | 436 kts | 290° |
| 2026-04-21 06:41 | 24.47299 | 57.40543 | 34659 ft | 436 kts | 289° |
| 2026-04-21 06:42 | 24.48283 | 57.37350 | 33869 ft | 456 kts | 289° |
| 2026-04-21 06:42 | 24.49314 | 57.33996 | 33047 ft | 480 kts | 288° |
| 2026-04-21 06:42 | 24.50384 | 57.30514 | 32168 ft | 483 kts | 288° |
| 2026-04-21 06:42 | 24.51459 | 57.27014 | 31285 ft | 483 kts | 288° |
| 2026-04-21 06:43 | 24.52535 | 57.23504 | 30449 ft | 482 kts | 287° |
| 2026-04-21 06:43 | 24.53583 | 57.20087 | 29991 ft | 474 kts | 287° |
| 2026-04-21 06:43 | 24.54628 | 57.16672 | 29531 ft | 466 kts | 287° |
| 2026-04-21 06:43 | 24.55647 | 57.13340 | 29020 ft | 460 kts | 287° |
| 2026-04-21 06:44 | 24.56658 | 57.10033 | 28502 ft | 455 kts | 287° |
| 2026-04-21 06:44 | 24.57658 | 57.06760 | 27969 ft | 450 kts | 287° |
| 2026-04-21 06:44 | 24.58642 | 57.03534 | 27438 ft | 445 kts | 287° |
| 2026-04-21 06:44 | 24.59613 | 57.00348 | 26914 ft | 440 kts | 287° |
| 2026-04-21 06:45 | 24.60582 | 56.97165 | 26378 ft | 436 kts | 287° |
| 2026-04-21 06:45 | 24.61536 | 56.94031 | 25849 ft | 431 kts | 287° |
| 2026-04-21 06:45 | 24.62472 | 56.90952 | 25326 ft | 427 kts | 287° |
| 2026-04-21 06:45 | 24.63413 | 56.87853 | 24791 ft | 422 kts | 287° |
| 2026-04-21 06:46 | 24.64404 | 56.84851 | 24262 ft | 418 kts | 292° |
| 2026-04-21 06:46 | 24.65756 | 56.82043 | 23730 ft | 415 kts | 299° |
| 2026-04-21 06:46 | 24.67227 | 56.79367 | 23200 ft | 410 kts | 300° |
| 2026-04-21 06:46 | 24.68700 | 56.76702 | 22676 ft | 406 kts | 300° |
| 2026-04-21 06:47 | 24.70154 | 56.74072 | 22151 ft | 401 kts | 300° |
| 2026-04-21 06:47 | 24.71583 | 56.71482 | 21646 ft | 398 kts | 300° |
| 2026-04-21 06:47 | 24.73042 | 56.68836 | 21116 ft | 412 kts | 299° |
| 2026-04-21 06:47 | 24.74532 | 56.66133 | 20565 ft | 414 kts | 300° |
| 2026-04-21 06:48 | 24.76011 | 56.63448 | 20009 ft | 410 kts | 300° |
| 2026-04-21 06:48 | 24.77476 | 56.60787 | 19475 ft | 405 kts | 299° |
| 2026-04-21 06:48 | 24.78913 | 56.58177 | 18918 ft | 401 kts | 299° |
| 2026-04-21 06:48 | 24.80351 | 56.55563 | 18421 ft | 396 kts | 299° |
| 2026-04-21 06:49 | 24.81773 | 56.52976 | 18093 ft | 387 kts | 299° |
| 2026-04-21 06:49 | 24.83137 | 56.50494 | 17707 ft | 383 kts | 299° |
| 2026-04-21 06:49 | 24.84522 | 56.47916 | 17222 ft | 401 kts | 296° |
| 2026-04-21 06:49 | 24.85728 | 56.45150 | 16770 ft | 397 kts | 294° |
| 2026-04-21 06:50 | 24.86869 | 56.42423 | 16266 ft | 392 kts | 294° |
| 2026-04-21 06:50 | 24.88006 | 56.39698 | 15719 ft | 389 kts | 294° |
| 2026-04-21 06:50 | 24.89128 | 56.37008 | 15192 ft | 385 kts | 294° |
| 2026-04-21 06:50 | 24.90239 | 56.34342 | 14658 ft | 382 kts | 294° |
| 2026-04-21 06:51 | 24.91338 | 56.31705 | 14132 ft | 379 kts | 294° |
| 2026-04-21 06:51 | 24.92430 | 56.29082 | 13601 ft | 376 kts | 294° |
| 2026-04-21 06:51 | 24.93498 | 56.26515 | 13074 ft | 373 kts | 294° |
| 2026-04-21 06:51 | 24.94575 | 56.23923 | 12552 ft | 370 kts | 295° |
| 2026-04-21 06:52 | 24.95645 | 56.21347 | 12015 ft | 367 kts | 295° |
| 2026-04-21 06:52 | 24.96696 | 56.18819 | 11481 ft | 365 kts | 295° |
| 2026-04-21 06:52 | 24.97743 | 56.16297 | 10972 ft | 361 kts | 295° |
| 2026-04-21 06:52 | 24.98763 | 56.13835 | 10841 ft | 346 kts | 295° |
| 2026-04-21 06:53 | 24.99752 | 56.11451 | 10773 ft | 332 kts | 295° |
| 2026-04-21 06:53 | 25.00683 | 56.09203 | 10613 ft | 320 kts | 295° |
| 2026-04-21 06:53 | 25.01594 | 56.07002 | 10474 ft | 308 kts | 295° |
| 2026-04-21 06:53 | 25.02471 | 56.04884 | 10331 ft | 298 kts | 295° |
| 2026-04-21 06:54 | 25.03306 | 56.02867 | 10196 ft | 287 kts | 295° |
| 2026-04-21 06:54 | 25.04125 | 56.00888 | 10077 ft | 277 kts | 295° |
| 2026-04-21 06:54 | 25.04909 | 55.98991 | 9940 ft | 268 kts | 295° |
| 2026-04-21 06:54 | 25.05677 | 55.97132 | 9574 ft | 270 kts | 294° |
| 2026-04-21 06:55 | 25.06201 | 55.95157 | 9224 ft | 269 kts | 281° |
| 2026-04-21 06:55 | 25.06481 | 55.93131 | 8884 ft | 269 kts | 279° |
| 2026-04-21 06:55 | 25.06732 | 55.91099 | 8577 ft | 267 kts | 279° |
| 2026-04-21 06:55 | 25.06988 | 55.89056 | 8244 ft | 266 kts | 279° |
| 2026-04-21 06:56 | 25.07242 | 55.87044 | 7978 ft | 263 kts | 279° |
| 2026-04-21 06:56 | 25.07493 | 55.85066 | 7726 ft | 260 kts | 279° |
| 2026-04-21 06:56 | 25.07740 | 55.83117 | 7461 ft | 257 kts | 279° |
| 2026-04-21 06:56 | 25.07988 | 55.81167 | 7213 ft | 255 kts | 279° |
| 2026-04-21 06:57 | 25.08232 | 55.79241 | 6955 ft | 252 kts | 279° |
| 2026-04-21 06:57 | 25.08471 | 55.77351 | 6700 ft | 250 kts | 279° |
| 2026-04-21 06:57 | 25.08711 | 55.75454 | 6458 ft | 247 kts | 279° |
| 2026-04-21 06:57 | 25.08947 | 55.73580 | 6210 ft | 244 kts | 279° |
| 2026-04-21 06:58 | 25.09176 | 55.71765 | 5970 ft | 241 kts | 279° |
| 2026-04-21 06:58 | 25.09405 | 55.69944 | 5732 ft | 235 kts | 279° |
| 2026-04-21 06:58 | 25.09628 | 55.68173 | 5504 ft | 230 kts | 279° |
| 2026-04-21 06:58 | 25.09843 | 55.66463 | 5274 ft | 225 kts | 279° |
| 2026-04-21 06:59 | 25.10058 | 55.64756 | 5028 ft | 221 kts | 279° |
| 2026-04-21 06:59 | 25.10459 | 55.63160 | 4770 ft | 214 kts | 296° |
| 2026-04-21 06:59 | 25.11146 | 55.61736 | 4506 ft | 207 kts | 301° |
| 2026-04-21 06:59 | 25.11874 | 55.60381 | 4270 ft | 201 kts | 302° |
| 2026-04-21 07:00 | 25.12588 | 55.59100 | 4029 ft | 196 kts | 303° |
| 2026-04-21 07:00 | 25.13306 | 55.57836 | 3795 ft | 192 kts | 303° |
| 2026-04-21 07:00 | 25.14016 | 55.56588 | 3547 ft | 191 kts | 303° |
| 2026-04-21 07:00 | 25.14722 | 55.55341 | 3295 ft | 191 kts | 303° |
| 2026-04-21 07:01 | 25.15408 | 55.54120 | 3050 ft | 187 kts | 304° |
| 2026-04-21 07:01 | 25.16086 | 55.52913 | 2819 ft | 184 kts | 303° |
| 2026-04-21 07:01 | 25.17410 | 55.50545 | 2357 ft | 178 kts | 303° |
| 2026-04-21 07:02 | 25.18047 | 55.49404 | 2132 ft | 171 kts | 303° |
| 2026-04-21 07:02 | 25.18662 | 55.48304 | 1912 ft | 169 kts | 303° |
| 2026-04-21 07:02 | 25.19277 | 55.47201 | 1680 ft | 165 kts | 303° |
| 2026-04-21 07:02 | 25.19854 | 55.46167 | 1472 ft | 152 kts | 303° |
| 2026-04-21 07:03 | 25.20410 | 55.45173 | 1277 ft | 151 kts | 304° |
| 2026-04-21 07:03 | 25.20954 | 55.44197 | 1057 ft | 151 kts | 303° |
| 2026-04-21 07:03 | 25.21504 | 55.43206 | 863 ft | 150 kts | 304° |
| 2026-04-21 07:03 | 25.22055 | 55.42222 | 652 ft | 150 kts | 304° |
| 2026-04-21 07:04 | 25.22609 | 55.41253 | 459 ft | 150 kts | 304° |
| 2026-04-21 07:04 | 25.23147 | 55.40274 | 267 ft | 150 kts | 303° |
| 2026-04-21 07:04 | 25.23701 | 55.39291 | 88 ft | 146 kts | 302° |
| 2026-04-21 07:04 | 25.24178 | 55.38430 | 76 ft | 112 kts | 302° |
| 2026-04-21 07:05 | 25.24489 | 55.37874 | 76 ft | 59 kts | 302° |
| 2026-04-21 07:05 | 25.24672 | 55.37545 | 76 ft | 42 kts | 302° |
| 2026-04-21 07:05 | 25.24770 | 55.37307 | 76 ft | 30 kts | 280° |
| 2026-04-21 07:05 | 25.24781 | 55.37124 | 76 ft | 18 kts | 273° |
| 2026-04-21 07:06 | 25.24790 | 55.36993 | 76 ft | 16 kts | 281° |
| 2026-04-21 07:06 | 25.24830 | 55.36883 | 76 ft | 14 kts | 295° |
| 2026-04-21 07:06 | 25.24862 | 55.36778 | 76 ft | 13 kts | 283° |
| 2026-04-21 07:06 | 25.24887 | 55.36678 | 76 ft | 13 kts | 294° |
| 2026-04-21 07:07 | 25.24932 | 55.36588 | 76 ft | 13 kts | 302° |
| 2026-04-21 07:07 | 25.24984 | 55.36496 | 76 ft | 14 kts | 302° |
| 2026-04-21 07:07 | 25.25038 | 55.36400 | 76 ft | 15 kts | 301° |
| 2026-04-21 07:07 | 25.25093 | 55.36299 | 76 ft | 15 kts | 302° |
| 2026-04-21 07:08 | 25.25150 | 55.36196 | 76 ft | 15 kts | 302° |
| 2026-04-21 07:08 | 25.25209 | 55.36091 | 75 ft | 16 kts | 301° |
| 2026-04-21 07:08 | 25.25269 | 55.35983 | 75 ft | 16 kts | 302° |
| 2026-04-21 07:08 | 25.25331 | 55.35873 | 75 ft | 17 kts | 301° |
| 2026-04-21 07:09 | 25.25392 | 55.35759 | 75 ft | 17 kts | 301° |
| 2026-04-21 07:09 | 25.25450 | 55.35647 | 75 ft | 15 kts | 293° |
| 2026-04-21 07:09 | 25.25470 | 55.35531 | 75 ft | 14 kts | 272° |
| 2026-04-21 07:09 | 25.25480 | 55.35423 | 75 ft | 13 kts | 289° |
| 2026-04-21 07:10 | 25.25526 | 55.35332 | 75 ft | 13 kts | 302° |
| 2026-04-21 07:10 | 25.25567 | 55.35259 | 75 ft | 7 kts | 302° |
| 2026-04-21 07:10 | 25.25592 | 55.35213 | 75 ft | 5 kts | 297° |
| 2026-04-21 07:10 | 25.25587 | 55.35191 | 75 ft | 4 kts | 228° |
| 2026-04-21 07:11 | 25.25557 | 55.35166 | 75 ft | 5 kts | 211° |
| 2026-04-21 07:11 | 25.25530 | 55.35148 | 75 ft | 2 kts | 212° |
| 2026-04-21 07:11 | 25.25524 | 55.35143 | 75 ft | 0 kts | 211° |